UAL818 SAEZ-KIAH
Flight info
| Callsign | UAL818 |
|---|---|
| Flight time | N/A |
| Altitude | 34000 |
| Route | BIVAM1E BIVAM UW8 ERE UT680 TUC UL550 ALDAX DCT ILMAR UM542 OKASO/N0496F360 UM542 ARNEL DCT LIXAS UZ512 RADIM DCT URPOS DCT APMEL/N0486F380 DCT DUTNA L208 PEGLG LINKK1 |
| Aircraft | B77W/H-SDE1E2E3FGHIJ2J3J4J5M1RWXY/LB1D1 |
Departure
| Time | N/A |
|---|---|
| Airport | Ezeiza International Airport - Ministro Pistarini (SAEZ) |
Arrival
| Time | 2026-05-05 03:59 |
|---|---|
| Airport | George Bush Intercontinental Airport (KIAH) |
| Time | Latitude | Longitude | Altitude | Speed | Heading |
|---|---|---|---|---|---|
| 2026-05-05 03:31 | 28.70263 | -93.63731 | 36528 ft | 408 kts | 332° |
| 2026-05-05 03:32 | 28.72920 | -93.64865 | 35787 ft | 409 kts | 333° |
| 2026-05-05 03:32 | 28.75597 | -93.66009 | 34945 ft | 412 kts | 333° |
| 2026-05-05 03:32 | 28.78284 | -93.67159 | 34065 ft | 417 kts | 333° |
| 2026-05-05 03:32 | 28.80971 | -93.68308 | 33074 ft | 422 kts | 333° |
| 2026-05-05 03:33 | 28.83727 | -93.69485 | 32123 ft | 425 kts | 333° |
| 2026-05-05 03:33 | 28.86508 | -93.70673 | 31151 ft | 429 kts | 334° |
| 2026-05-05 03:33 | 28.89298 | -93.71863 | 30430 ft | 427 kts | 334° |
| 2026-05-05 03:33 | 28.92075 | -93.73047 | 29661 ft | 426 kts | 334° |
| 2026-05-05 03:34 | 28.94844 | -93.74231 | 28886 ft | 423 kts | 334° |
| 2026-05-05 03:34 | 28.97588 | -93.75404 | 28165 ft | 419 kts | 334° |
| 2026-05-05 03:34 | 29.00291 | -93.76561 | 27487 ft | 414 kts | 334° |
| 2026-05-05 03:34 | 29.02914 | -93.77739 | 26837 ft | 405 kts | 330° |
| 2026-05-05 03:35 | 29.05251 | -93.79416 | 26170 ft | 391 kts | 315° |
| 2026-05-05 03:35 | 29.07101 | -93.81603 | 25557 ft | 378 kts | 311° |
| 2026-05-05 03:35 | 29.08984 | -93.83690 | 24953 ft | 377 kts | 315° |
| 2026-05-05 03:35 | 29.10935 | -93.85698 | 24335 ft | 377 kts | 315° |
| 2026-05-05 03:36 | 29.12893 | -93.87686 | 23716 ft | 376 kts | 315° |
| 2026-05-05 03:36 | 29.14841 | -93.89677 | 23017 ft | 376 kts | 315° |
| 2026-05-05 03:36 | 29.16777 | -93.91675 | 22366 ft | 374 kts | 315° |
| 2026-05-05 03:36 | 29.18693 | -93.93666 | 21742 ft | 371 kts | 315° |
| 2026-05-05 03:37 | 29.20599 | -93.95656 | 21157 ft | 369 kts | 315° |
| 2026-05-05 03:37 | 29.22464 | -93.97607 | 20555 ft | 368 kts | 315° |
| 2026-05-05 03:37 | 29.24348 | -93.99581 | 20016 ft | 365 kts | 315° |
| 2026-05-05 03:37 | 29.26122 | -94.01439 | 19860 ft | 352 kts | 315° |
| 2026-05-05 03:38 | 29.27903 | -94.03305 | 19693 ft | 341 kts | 315° |
| 2026-05-05 03:38 | 29.29620 | -94.05104 | 19544 ft | 329 kts | 315° |
| 2026-05-05 03:38 | 29.31285 | -94.06851 | 19282 ft | 322 kts | 315° |
| 2026-05-05 03:38 | 29.32932 | -94.08580 | 18866 ft | 320 kts | 315° |
| 2026-05-05 03:39 | 29.34574 | -94.10304 | 18451 ft | 319 kts | 315° |
| 2026-05-05 03:39 | 29.36187 | -94.11998 | 17971 ft | 319 kts | 315° |
| 2026-05-05 03:39 | 29.37821 | -94.13714 | 17498 ft | 318 kts | 315° |
| 2026-05-05 03:39 | 29.39444 | -94.15421 | 17051 ft | 316 kts | 315° |
| 2026-05-05 03:40 | 29.41059 | -94.17119 | 16614 ft | 315 kts | 315° |
| 2026-05-05 03:40 | 29.42670 | -94.18814 | 16171 ft | 313 kts | 315° |
| 2026-05-05 03:40 | 29.44276 | -94.20504 | 15736 ft | 313 kts | 315° |
| 2026-05-05 03:40 | 29.45879 | -94.22194 | 15309 ft | 314 kts | 315° |
| 2026-05-05 03:41 | 29.47498 | -94.23900 | 15005 ft | 316 kts | 315° |
| 2026-05-05 03:41 | 29.49086 | -94.25572 | 14835 ft | 311 kts | 315° |
| 2026-05-05 03:41 | 29.50657 | -94.27227 | 14678 ft | 302 kts | 315° |
| 2026-05-05 03:41 | 29.52177 | -94.28828 | 14554 ft | 292 kts | 315° |
| 2026-05-05 03:42 | 29.53554 | -94.30474 | 14255 ft | 283 kts | 306° |
| 2026-05-05 03:42 | 29.54676 | -94.32325 | 13938 ft | 281 kts | 302° |
| 2026-05-05 03:42 | 29.55730 | -94.34217 | 13573 ft | 281 kts | 302° |
| 2026-05-05 03:42 | 29.56783 | -94.36106 | 13178 ft | 281 kts | 302° |
| 2026-05-05 03:43 | 29.57841 | -94.37984 | 12812 ft | 280 kts | 302° |
| 2026-05-05 03:43 | 29.58893 | -94.39830 | 12458 ft | 279 kts | 302° |
| 2026-05-05 03:43 | 29.59962 | -94.41692 | 12104 ft | 279 kts | 303° |
| 2026-05-05 03:43 | 29.61030 | -94.43544 | 11744 ft | 278 kts | 303° |
| 2026-05-05 03:44 | 29.62101 | -94.45396 | 11384 ft | 278 kts | 303° |
| 2026-05-05 03:44 | 29.63169 | -94.47240 | 11036 ft | 277 kts | 303° |
| 2026-05-05 03:44 | 29.64238 | -94.49083 | 10689 ft | 277 kts | 303° |
| 2026-05-05 03:44 | 29.65306 | -94.50924 | 10336 ft | 277 kts | 303° |
| 2026-05-05 03:45 | 29.66371 | -94.52761 | 10124 ft | 272 kts | 303° |
| 2026-05-05 03:45 | 29.67430 | -94.54509 | 9949 ft | 260 kts | 309° |
| 2026-05-05 03:45 | 29.68801 | -94.55744 | 9804 ft | 253 kts | 328° |
| 2026-05-05 03:45 | 29.70369 | -94.56791 | 9675 ft | 268 kts | 326° |
| 2026-05-05 03:46 | 29.71975 | -94.57944 | 9513 ft | 275 kts | 325° |
| 2026-05-05 03:46 | 29.73592 | -94.59117 | 9332 ft | 273 kts | 325° |
| 2026-05-05 03:46 | 29.75187 | -94.60275 | 9174 ft | 270 kts | 325° |
| 2026-05-05 03:46 | 29.76765 | -94.61420 | 8997 ft | 266 kts | 325° |
| 2026-05-05 03:47 | 29.78322 | -94.62549 | 8845 ft | 264 kts | 325° |
| 2026-05-05 03:47 | 29.79872 | -94.63673 | 8698 ft | 263 kts | 324° |
| 2026-05-05 03:47 | 29.81393 | -94.64778 | 8550 ft | 262 kts | 324° |
| 2026-05-05 03:47 | 29.82931 | -94.65895 | 8400 ft | 262 kts | 324° |
| 2026-05-05 03:48 | 29.84476 | -94.67016 | 8250 ft | 262 kts | 324° |
| 2026-05-05 03:48 | 29.86021 | -94.68139 | 8095 ft | 263 kts | 324° |
| 2026-05-05 03:48 | 29.87573 | -94.69267 | 7936 ft | 264 kts | 324° |
| 2026-05-05 03:48 | 29.89131 | -94.70399 | 7785 ft | 266 kts | 324° |
| 2026-05-05 03:49 | 29.90700 | -94.71540 | 7622 ft | 267 kts | 324° |
| 2026-05-05 03:49 | 29.92276 | -94.72686 | 7468 ft | 268 kts | 324° |
| 2026-05-05 03:49 | 29.93846 | -94.73828 | 7336 ft | 265 kts | 324° |
| 2026-05-05 03:49 | 29.95389 | -94.74949 | 7157 ft | 259 kts | 324° |
| 2026-05-05 03:50 | 29.96854 | -94.76037 | 7030 ft | 246 kts | 319° |
| 2026-05-05 03:50 | 29.97851 | -94.77484 | 6940 ft | 224 kts | 289° |
| 2026-05-05 03:50 | 29.98368 | -94.79215 | 6944 ft | 232 kts | 288° |
| 2026-05-05 03:50 | 29.98928 | -94.80949 | 6929 ft | 228 kts | 289° |
| 2026-05-05 03:51 | 29.99374 | -94.82660 | 6912 ft | 219 kts | 272° |
| 2026-05-05 03:51 | 29.99319 | -94.84404 | 6938 ft | 220 kts | 267° |
| 2026-05-05 03:51 | 29.99291 | -94.86198 | 6947 ft | 226 kts | 270° |
| 2026-05-05 03:51 | 29.99295 | -94.88004 | 6934 ft | 226 kts | 270° |
| 2026-05-05 03:52 | 29.99317 | -94.89788 | 6921 ft | 225 kts | 270° |
| 2026-05-05 03:52 | 29.99332 | -94.91582 | 6914 ft | 223 kts | 270° |
| 2026-05-05 03:52 | 29.99339 | -94.93405 | 6528 ft | 235 kts | 270° |
| 2026-05-05 03:52 | 29.99341 | -94.95309 | 6173 ft | 238 kts | 269° |
| 2026-05-05 03:53 | 29.99342 | -94.97208 | 5872 ft | 237 kts | 269° |
| 2026-05-05 03:53 | 29.99342 | -94.99109 | 5571 ft | 236 kts | 268° |
| 2026-05-05 03:53 | 29.99342 | -95.00951 | 5285 ft | 236 kts | 268° |
| 2026-05-05 03:53 | 29.99342 | -95.02754 | 5001 ft | 236 kts | 268° |
| 2026-05-05 03:54 | 29.99342 | -95.04638 | 4704 ft | 235 kts | 268° |
| 2026-05-05 03:54 | 29.99342 | -95.06502 | 4401 ft | 235 kts | 267° |
| 2026-05-05 03:54 | 29.99342 | -95.08389 | 4088 ft | 235 kts | 266° |
| 2026-05-05 03:54 | 29.99343 | -95.10270 | 3781 ft | 233 kts | 266° |
| 2026-05-05 03:55 | 29.99344 | -95.12096 | 3472 ft | 221 kts | 265° |
| 2026-05-05 03:55 | 29.99345 | -95.13809 | 3222 ft | 204 kts | 264° |
| 2026-05-05 03:55 | 29.99346 | -95.15382 | 2999 ft | 188 kts | 263° |
| 2026-05-05 03:55 | 29.99345 | -95.16839 | 2727 ft | 181 kts | 262° |
| 2026-05-05 03:56 | 29.99342 | -95.18290 | 2504 ft | 179 kts | 262° |
| 2026-05-05 03:56 | 29.99345 | -95.19676 | 2266 ft | 164 kts | 260° |
| 2026-05-05 03:56 | 29.99346 | -95.20924 | 2044 ft | 147 kts | 261° |
| 2026-05-05 03:56 | 29.99345 | -95.22044 | 1867 ft | 139 kts | 259° |
| 2026-05-05 03:57 | 29.99341 | -95.23157 | 1684 ft | 138 kts | 259° |
| 2026-05-05 03:57 | 29.99339 | -95.24285 | 1523 ft | 145 kts | 261° |
| 2026-05-05 03:57 | 29.99340 | -95.25472 | 1320 ft | 150 kts | 262° |
| 2026-05-05 03:57 | 29.99342 | -95.26668 | 1113 ft | 147 kts | 262° |
| 2026-05-05 03:58 | 29.99341 | -95.27830 | 921 ft | 144 kts | 263° |
| 2026-05-05 03:58 | 29.99340 | -95.28990 | 766 ft | 148 kts | 265° |
| 2026-05-05 03:58 | 29.99341 | -95.30187 | 537 ft | 149 kts | 265° |
| 2026-05-05 03:58 | 29.99346 | -95.31370 | 337 ft | 151 kts | 268° |
| 2026-05-05 03:59 | 29.99344 | -95.32586 | 153 ft | 152 kts | 268° |
| 2026-05-05 03:59 | 29.99335 | -95.33725 | 109 ft | 122 kts | 271° |
| 2026-05-05 03:59 | 29.99341 | -95.34488 | 110 ft | 68 kts | 269° |
| 2026-05-05 03:59 | 29.99280 | -95.34790 | 112 ft | 23 kts | 242° |
| 2026-05-05 04:00 | 29.99182 | -95.34980 | 110 ft | 20 kts | 233° |
| 2026-05-05 04:00 | 29.99074 | -95.35069 | 110 ft | 18 kts | 194° |
| 2026-05-05 04:00 | 29.98997 | -95.35011 | 111 ft | 13 kts | 97° |
| 2026-05-05 04:00 | 29.98997 | -95.34912 | 112 ft | 12 kts | 88° |
| 2026-05-05 04:01 | 29.98996 | -95.34820 | 112 ft | 12 kts | 91° |
| 2026-05-05 04:01 | 29.98995 | -95.34692 | 112 ft | 21 kts | 90° |
| 2026-05-05 04:01 | 29.98994 | -95.34530 | 112 ft | 24 kts | 90° |
| 2026-05-05 04:01 | 29.99023 | -95.34360 | 110 ft | 22 kts | 37° |
| 2026-05-05 04:02 | 29.99069 | -95.34286 | 110 ft | 9 kts | 96° |
| 2026-05-05 04:02 | 29.99021 | -95.34234 | 110 ft | 13 kts | 142° |
| 2026-05-05 04:02 | 29.98991 | -95.34198 | 110 ft | 0 kts | 130° |